Time;durP1;ratioP1;P1;durP2;ratioP2;P2;SDS_P1;SDS_P2;PMS_P1;PMS_P2;Temp;Humidity;BMP_temperature;BMP_pressure;BME280_temperature;BME280_humidity;BME280_pressure;Samples;Min_cycle;Max_cycle;Signal;HPM_P1;HPM_P2
2023/04/05 00:01:07;;;;;;;;;22.75;22.00;;;;;-147.17;100.00;47667.69;5011482;28;51302;-55
2023/04/05 00:03:33;;;;;;;;;22.00;21.25;;;;;-147.17;100.00;47632.28;5009554;28;52229;-56
2023/04/05 00:05:59;;;;;;;;;20.50;19.00;;;;;-147.17;100.00;47659.81;5009336;28;51739;-56
2023/04/05 00:08:25;;;;;;;;;17.50;17.25;;;;;-147.17;100.00;47712.94;5007907;28;51466;-55
2023/04/05 00:10:52;;;;;;;;;30.50;27.75;;;;;-147.17;100.00;47677.53;5009788;28;51270;-55
2023/04/05 00:13:18;;;;;;;;;20.50;19.75;;;;;-147.17;100.00;47691.28;4999424;28;53085;-55
2023/04/05 00:15:43;;;;;;;;;17.50;17.00;;;;;-147.17;100.00;47636.22;5011179;28;51595;-55
2023/04/05 00:18:20;;;;;;;;;22.00;21.00;;;;;-147.17;100.00;47701.13;5010600;28;51220;-56
2023/04/05 00:20:48;;;;;;;;;22.50;20.25;;;;;-147.17;100.00;47648.03;5010546;28;51279;-55
2023/04/05 00:23:15;;;;;;;;;23.50;20.25;;;;;-147.17;100.00;47671.63;5010797;28;51904;-56
2023/04/05 00:25:41;;;;;;;;;18.50;17.75;;;;;-147.17;100.00;47675.56;5011326;28;51190;-55
2023/04/05 00:28:06;;;;;;;;;20.00;17.25;;;;;-147.17;100.00;47649.97;5011614;28;51031;-56
2023/04/05 00:30:32;;;;;;;;;20.00;18.25;;;;;-147.17;100.00;47697.19;5010973;28;51305;-56
2023/04/05 00:32:57;;;;;;;;;16.00;15.00;;;;;-147.17;100.00;47679.50;5011629;28;51205;-56
2023/04/05 00:35:26;;;;;;;;;17.75;16.00;;;;;-147.17;100.00;47734.56;5007802;28;51055;-55
2023/04/05 00:37:51;;;;;;;;;22.00;21.00;;;;;-147.17;100.00;47744.41;5010249;28;51162;-56
2023/04/05 00:40:17;;;;;;;;;24.00;21.00;;;;;-147.17;100.00;47740.47;5012320;28;51261;-56
2023/04/05 00:42:42;;;;;;;;;19.00;17.00;;;;;-147.17;100.00;47726.72;5007184;28;51636;-56
2023/04/05 00:45:08;;;;;;;;;22.25;20.75;;;;;-147.17;100.00;47667.69;5010593;28;57713;-57
2023/04/05 00:47:33;;;;;;;;;18.50;17.00;;;;;-147.17;100.00;47651.94;5011064;28;51157;-53
2023/04/05 00:49:59;;;;;;;;;21.00;19.50;;;;;-147.17;100.00;47695.22;5011806;28;51340;-54
2023/04/05 00:52:26;;;;;;;;;16.25;16.00;;;;;-147.17;100.00;47705.06;5010154;28;52204;-55
2023/04/05 00:54:52;;;;;;;;;18.75;15.75;;;;;-147.17;100.00;47722.78;5011388;28;50920;-56
2023/04/05 00:57:18;;;;;;;;;18.75;17.25;;;;;-147.17;100.00;47768.03;5007106;28;51465;-55
2023/04/05 00:59:44;;;;;;;;;19.50;18.00;;;;;-147.17;100.00;47762.13;5009820;28;51975;-55
2023/04/05 01:02:16;;;;;;;;;19.50;17.75;;;;;-147.17;100.00;47771.94;5010497;28;51821;-56
2023/04/05 01:04:48;;;;;;;;;21.25;19.00;;;;;-147.17;100.00;47805.41;5010389;28;51181;-56
2023/04/05 01:07:40;;;;;;;;;19.00;19.00;;;;;-147.17;100.00;47856.53;5011529;28;51041;-55
2023/04/05 01:10:09;;;;;;;;;16.25;15.50;;;;;-147.17;100.00;47829.00;5006242;28;50980;-55
2023/04/05 01:12:36;;;;;;;;;16.25;16.00;;;;;-147.17;100.00;47840.81;5012542;28;52359;-53
2023/04/05 01:15:01;;;;;;;;;21.00;18.75;;;;;-147.17;100.00;47850.66;5013449;28;51106;-54
2023/04/05 01:17:35;;;;;;;;;28.00;20.25;;;;;-147.17;100.00;47864.41;5015438;28;50983;-55
2023/04/05 01:20:10;;;;;;;;;21.00;21.00;;;;;-147.17;100.00;47860.47;5014827;28;51205;-55
2023/04/05 01:22:42;;;;;;;;;18.25;17.25;;;;;-147.17;100.00;47899.81;5013156;28;51848;-55
2023/04/05 01:25:37;;;;;;;;;15.75;15.50;;;;;-147.17;100.00;47850.66;5007383;28;51013;-55
2023/04/05 01:28:29;;;;;;;;;15.50;14.25;;;;;-147.17;100.00;47880.16;5013776;28;51734;-56
2023/04/05 01:31:30;;;;;;;;;17.00;15.00;;;;;-147.17;100.00;47901.78;5012345;28;51327;-54
2023/04/05 01:34:10;;;;;;;;;18.75;17.75;;;;;-147.17;100.00;47966.72;5003160;28;53048;-54
2023/04/05 01:36:42;;;;;;;;;22.50;21.00;;;;;-147.17;100.00;47954.91;5012975;28;51190;-55
2023/04/05 01:39:12;;;;;;;;;17.50;15.75;;;;;-147.17;100.00;48017.88;5013724;28;51248;-56
2023/04/05 01:41:39;;;;;;;;;13.75;13.75;;;;;-147.17;100.00;48039.50;5012860;28;51134;-54
2023/04/05 01:44:04;;;;;;;;;16.25;15.25;;;;;-147.17;100.00;48031.66;5013848;28;51819;-52
2023/04/05 01:46:30;;;;;;;;;14.50;14.25;;;;;-147.17;100.00;48029.69;5013278;28;50871;-53
2023/04/05 01:48:55;;;;;;;;;17.75;15.00;;;;;-147.17;100.00;48019.84;5014388;28;51031;-54
2023/04/05 01:51:21;;;;;;;;;16.25;14.75;;;;;-147.17;100.00;48017.88;5014199;28;51190;-54
2023/04/05 01:53:46;;;;;;;;;17.00;15.75;;;;;-147.17;100.00;48069.03;5013628;28;50955;-56
2023/04/05 01:56:11;;;;;;;;;19.25;17.25;;;;;-147.17;100.00;48017.88;5005533;28;51144;-55
2023/04/05 01:58:37;;;;;;;;;15.25;15.00;;;;;-147.17;100.00;47976.56;5012852;28;51123;-56
2023/04/05 02:01:03;;;;;;;;;14.75;14.25;;;;;-147.17;100.00;48021.81;5012258;28;51254;-54
2023/04/05 02:03:28;;;;;;;;;18.50;16.00;;;;;-147.17;100.00;47994.25;5011964;28;51848;-54
2023/04/05 02:05:54;;;;;;;;;18.50;16.25;;;;;-147.17;100.00;47949.00;5013860;28;51229;-54
2023/04/05 02:08:20;;;;;;;;;17.25;16.25;;;;;-147.17;100.00;47978.53;5012975;28;51210;-56
2023/04/05 02:10:45;;;;;;;;;21.00;19.25;;;;;-147.17;100.00;47980.50;5013774;28;51581;-55
2023/04/05 02:13:12;;;;;;;;;14.75;14.25;;;;;-147.17;100.00;47990.31;5011920;28;51729;-55
2023/04/05 02:15:37;;;;;;;;;17.25;15.75;;;;;-147.17;100.00;48004.09;5012626;28;51087;-56
2023/04/05 02:18:03;;;;;;;;;14.50;14.25;;;;;-147.17;100.00;47962.78;5013667;28;51090;-56
2023/04/05 02:20:29;;;;;;;;;19.00;18.25;;;;;-147.17;100.00;47939.19;5011686;28;51195;-54
2023/04/05 02:22:54;;;;;;;;;18.25;15.75;;;;;-147.17;100.00;48017.88;5012065;28;52344;-53
2023/04/05 02:25:20;;;;;;;;;19.50;19.00;;;;;-147.17;100.00;47982.47;5013747;28;51288;-55
2023/04/05 02:27:45;;;;;;;;;14.50;13.50;;;;;-147.17;100.00;47927.38;5013788;28;51363;-56
2023/04/05 02:30:15;;;;;;;;;17.00;15.75;;;;;-147.17;100.00;47909.66;5013586;28;51192;-55
2023/04/05 02:32:46;;;;;;;;;19.50;16.50;;;;;-147.17;100.00;47825.06;5011872;28;51186;-55
2023/04/05 02:35:11;;;;;;;;;20.75;18.25;;;;;-147.17;100.00;47805.41;5011752;28;51128;-56
2023/04/05 02:37:37;;;;;;;;;18.50;17.75;;;;;-147.17;100.00;47830.97;5013978;28;51081;-55
2023/04/05 02:40:09;;;;;;;;;20.00;17.00;;;;;-147.17;100.00;47832.94;5008584;28;51160;-55
2023/04/05 02:42:35;;;;;;;;;19.00;15.75;;;;;-147.17;100.00;47817.19;5011506;28;51171;-56
2023/04/05 02:45:00;;;;;;;;;15.00;13.00;;;;;-147.17;100.00;47832.94;5018340;28;51266;-55
2023/04/05 02:47:26;;;;;;;;;16.00;15.75;;;;;-147.17;100.00;47844.75;5012858;28;51199;-55
2023/04/05 02:49:51;;;;;;;;;19.75;18.25;;;;;-147.17;100.00;47868.34;5013696;28;51314;-55
2023/04/05 02:52:17;;;;;;;;;14.75;12.50;;;;;-147.17;100.00;47844.75;5013312;28;51129;-56
2023/04/05 02:54:43;;;;;;;;;15.75;15.25;;;;;-147.17;100.00;47850.66;5004630;28;51160;-54
2023/04/05 02:57:11;;;;;;;;;18.00;16.00;;;;;-147.17;100.00;47838.84;5002433;28;51339;-55
2023/04/05 02:59:37;;;;;;;;;19.50;18.75;;;;;-147.17;100.00;47813.25;5008380;28;51405;-56
2023/04/05 03:02:04;;;;;;;;;18.25;18.00;;;;;-147.17;100.00;47811.31;5012656;28;51967;-54
2023/04/05 03:04:33;;;;;;;;;19.75;16.25;;;;;-147.17;100.00;47789.66;5012072;28;51047;-54
2023/04/05 03:06:59;;;;;;;;;20.25;18.50;;;;;-147.17;100.00;47730.63;5011825;28;51047;-54
2023/04/05 03:09:26;;;;;;;;;19.00;17.25;;;;;-147.17;100.00;47663.75;5011608;28;51095;-53
2023/04/05 03:11:51;;;;;;;;;19.25;18.00;;;;;-147.17;100.00;47679.50;5010530;28;52321;-55
2023/04/05 03:14:17;;;;;;;;;18.50;18.00;;;;;-147.17;100.00;47592.94;5011499;28;51063;-55
2023/04/05 03:16:42;;;;;;;;;19.75;18.25;;;;;-147.17;100.00;47545.72;5010991;28;51056;-55
2023/04/05 03:19:07;;;;;;;;;21.75;19.75;;;;;-147.17;100.00;47413.94;5013589;28;50919;-55
2023/04/05 03:21:33;;;;;;;;;15.00;13.75;;;;;-147.17;100.00;47266.41;5012807;28;51671;-54
2023/04/05 03:23:59;;;;;;;;;24.75;24.00;;;;;-147.17;100.00;47077.56;5011153;28;51106;-54
2023/04/05 03:26:25;;;;;;;;;23.75;21.25;;;;;-147.17;100.00;46945.78;5012548;28;50953;-54
2023/04/05 03:28:50;;;;;;;;;19.00;16.75;;;;;-147.17;100.00;46975.28;5013045;28;50977;-53
2023/04/05 03:31:16;;;;;;;;;26.00;23.50;;;;;-147.17;100.00;47030.38;5011541;28;51151;-54
2023/04/05 03:33:41;;;;;;;;;24.00;21.00;;;;;-147.17;100.00;46993.00;5012083;28;50941;-56
2023/04/05 03:36:07;;;;;;;;;23.00;20.50;;;;;-147.17;100.00;47016.59;5011687;28;51734;-57
2023/04/05 03:38:32;;;;;;;;;22.75;21.25;;;;;-147.17;100.00;46979.22;5011833;28;51217;-54
2023/04/05 03:40:57;;;;;;;;;19.75;19.00;;;;;-147.17;100.00;46967.41;5011237;28;51193;-55
2023/04/05 03:43:23;;;;;;;;;22.50;20.25;;;;;-147.17;100.00;46892.69;5010519;28;51151;-56
2023/04/05 03:45:48;;;;;;;;;20.25;19.00;;;;;-147.17;100.00;46869.09;5012959;28;50993;-55
2023/04/05 03:48:18;;;;;;;;;23.00;21.50;;;;;-147.17;100.00;46743.22;5011435;28;52561;-53
2023/04/05 03:50:44;;;;;;;;;21.50;19.25;;;;;-147.17;100.00;46623.25;5011200;28;52164;-55
2023/04/05 03:53:10;;;;;;;;;23.00;22.00;;;;;-147.17;100.00;46585.88;5011673;28;50985;-57
2023/04/05 03:55:35;;;;;;;;;19.00;17.75;;;;;-147.17;100.00;46497.38;5012645;28;50944;-56
2023/04/05 03:58:01;;;;;;;;;22.00;20.25;;;;;-147.17;100.00;46615.38;5004562;28;51375;-57
2023/04/05 04:00:27;;;;;;;;;22.50;19.75;;;;;-147.17;100.00;46815.97;5005712;28;51500;-55
2023/04/05 04:02:52;;;;;;;;;19.00;18.00;;;;;-147.17;100.00;46957.59;5010358;28;50877;-56
2023/04/05 04:05:19;;;;;;;;;23.25;21.75;;;;;-147.17;100.00;46939.88;5010703;28;51363;-55
2023/04/05 04:07:44;;;;;;;;;22.75;17.75;;;;;-147.17;100.00;46825.81;5010962;28;51361;-55
2023/04/05 04:10:11;;;;;;;;;22.75;21.25;;;;;-147.17;100.00;46845.47;5011753;28;51261;-54
2023/04/05 04:12:37;;;;;;;;;22.75;19.50;;;;;-147.17;100.00;46967.41;5009007;28;51111;-54
2023/04/05 04:15:03;;;;;;;;;23.25;19.25;;;;;-147.17;100.00;47010.69;5012616;28;51124;-55
2023/04/05 04:17:30;;;;;;;;;23.25;22.00;;;;;-147.17;100.00;47006.75;5011178;28;51397;-54
2023/04/05 04:19:57;;;;;;;;;21.25;18.50;;;;;-147.17;100.00;47020.53;5009887;28;51106;-55
2023/04/05 04:22:25;;;;;;;;;18.00;18.00;;;;;-147.17;100.00;46971.34;5009752;28;51106;-55
2023/04/05 04:24:54;;;;;;;;;21.75;19.25;;;;;-147.17;100.00;47077.56;5011952;28;51120;-55
2023/04/05 04:27:19;;;;;;;;;22.50;19.50;;;;;-147.17;100.00;47164.13;5011926;28;51381;-56
2023/04/05 04:29:46;;;;;;;;;29.50;23.75;;;;;-147.17;100.00;47101.16;5011390;28;52994;-55
2023/04/05 04:32:15;;;;;;;;;19.50;17.75;;;;;-147.17;100.00;47065.78;4998209;28;51277;-55
2023/04/05 04:34:44;;;;;;;;;24.25;22.25;;;;;-147.17;100.00;47081.50;5010468;28;51040;-55
2023/04/05 04:37:16;;;;;;;;;21.25;19.00;;;;;-147.17;100.00;47093.31;5010351;28;51186;-56
2023/04/05 04:39:45;;;;;;;;;25.25;23.00;;;;;-147.17;100.00;46977.25;5011258;28;51860;-56
2023/04/05 04:42:10;;;;;;;;;24.00;23.00;;;;;-147.17;100.00;46707.81;5010804;28;51004;-56
2023/04/05 04:44:36;;;;;;;;;23.50;23.25;;;;;-147.17;100.00;46306.59;5011160;28;51141;-54
2023/04/05 04:47:01;;;;;;;;;23.75;23.00;;;;;-147.17;100.00;46070.63;5011209;28;51374;-55
2023/04/05 04:49:27;;;;;;;;;24.25;23.00;;;;;-147.17;100.00;45889.72;5015654;28;53158;-56
2023/04/05 04:51:52;;;;;;;;;24.00;22.00;;;;;-147.17;100.00;45710.78;5014613;28;50960;-54
2023/04/05 04:54:19;;;;;;;;;24.75;23.50;;;;;-147.17;100.00;45343.13;5008756;28;51588;-57
2023/04/05 04:56:45;;;;;;;;;27.00;24.25;;;;;-147.17;100.00;45311.66;5008080;28;51313;-59
2023/04/05 04:59:11;;;;;;;;;28.75;24.75;;;;;-147.17;100.00;45480.75;5011298;28;52998;-55
2023/04/05 05:01:39;;;;;;;;;23.00;22.25;;;;;-147.17;100.00;45484.69;5012192;28;51169;-55
2023/04/05 05:04:05;;;;;;;;;30.00;27.00;;;;;-147.17;100.00;45358.84;5014032;28;51076;-55
2023/04/05 05:06:30;;;;;;;;;23.00;22.25;;;;;-147.17;100.00;45425.69;5014868;28;50912;-55
2023/04/05 05:08:55;;;;;;;;;26.75;24.00;;;;;-147.17;100.00;45527.94;5015120;28;51901;-59
2023/04/05 05:11:21;;;;;;;;;23.75;23.25;;;;;-147.17;100.00;45634.09;5014473;28;50881;-56
2023/04/05 05:13:47;;;;;;;;;19.75;17.25;;;;;-147.17;100.00;45779.63;5014847;28;51066;-54
2023/04/05 05:16:12;;;;;;;;;25.00;23.50;;;;;-147.17;100.00;45636.06;5014160;28;52768;-55
2023/04/05 05:18:40;;;;;;;;;24.00;21.75;;;;;-147.17;100.00;45488.63;5015050;28;52050;-57
2023/04/05 05:21:06;;;;;;;;;22.75;22.00;;;;;-147.17;100.00;45441.44;5013482;28;51265;-56
2023/04/05 05:23:31;;;;;;;;;25.75;23.25;;;;;-147.17;100.00;45406.03;5003280;28;51207;-56
2023/04/05 05:25:58;;;;;;;;;23.50;21.75;;;;;-147.17;100.00;45404.06;5014123;28;51262;-53
2023/04/05 05:28:25;;;;;;;;;27.25;24.25;;;;;-147.17;100.00;45411.94;5012645;28;52856;-55
2023/04/05 05:30:50;;;;;;;;;23.50;21.00;;;;;-147.17;100.00;45246.78;5014047;28;51383;-56
2023/04/05 05:33:17;;;;;;;;;20.75;19.75;;;;;-147.17;100.00;45292.00;5015183;28;51562;-55
2023/04/05 05:35:43;;;;;;;;;25.25;22.00;;;;;-147.17;100.00;45238.91;5008806;28;51117;-55
2023/04/05 05:38:08;;;;;;;;;24.00;24.00;;;;;-147.17;100.00;45162.25;5014675;28;51098;-54
2023/04/05 05:40:33;;;;;;;;;24.75;22.75;;;;;-147.17;100.00;45044.28;5015106;28;51037;-54
2023/04/05 05:42:58;;;;;;;;;28.50;24.50;;;;;-147.17;100.00;44993.19;5014322;28;56639;-56
2023/04/05 05:45:24;;;;;;;;;23.75;23.50;;;;;-147.17;100.00;44977.44;5014980;28;51175;-55
2023/04/05 05:47:49;;;;;;;;;24.50;21.50;;;;;-147.17;100.00;45004.97;5014545;28;51078;-54
2023/04/05 05:50:16;;;;;;;;;22.25;20.25;;;;;-147.17;100.00;45008.91;5014712;28;50948;-55
2023/04/05 05:52:41;;;;;;;;;22.00;20.75;;;;;-147.17;100.00;45152.41;4997277;28;51156;-55
2023/04/05 05:55:07;;;;;;;;;23.25;18.75;;;;;-147.17;100.00;45168.16;5010398;28;51090;-55
2023/04/05 05:57:32;;;;;;;;;22.00;20.00;;;;;-147.17;100.00;45168.16;5013210;28;52110;-55
2023/04/05 05:59:57;;;;;;;;;24.50;23.00;;;;;-147.17;100.00;45189.78;5010696;28;51257;-54
2023/04/05 06:02:23;;;;;;;;;25.00;23.25;;;;;-147.17;100.00;45246.78;5010361;28;51173;-54
2023/04/05 06:04:48;;;;;;;;;22.00;20.50;;;;;-147.17;100.00;45134.72;5003786;28;50969;-54
2023/04/05 06:07:13;;;;;;;;;29.25;27.25;;;;;-147.17;100.00;44889.00;5013689;28;52693;-55
2023/04/05 06:09:39;;;;;;;;;32.50;27.25;;;;;-147.17;100.00;44767.09;5007484;28;51082;-56
2023/04/05 06:12:05;;;;;;;;;24.00;22.25;;;;;-147.17;100.00;44694.38;5014146;28;51061;-54
2023/04/05 06:14:30;;;;;;;;;30.25;30.00;;;;;-147.17;100.00;44690.44;5012375;28;51253;-54
2023/04/05 06:16:56;;;;;;;;;21.50;19.00;;;;;-147.17;100.00;44993.19;5013662;28;51733;-53
2023/04/05 06:19:21;;;;;;;;;26.00;24.50;;;;;-147.17;100.00;44523.38;5013963;28;50961;-54
2023/04/05 06:21:47;;;;;;;;;26.50;21.75;;;;;-147.17;100.00;43778.44;5014316;28;51093;-55
2023/04/05 06:24:12;;;;;;;;;23.75;23.50;;;;;-147.17;100.00;43745.03;5014493;28;50853;-55
2023/04/05 06:26:37;;;;;;;;;22.75;18.75;;;;;-147.17;100.00;43967.13;5011672;28;51868;-57
2023/04/05 06:29:03;;;;;;;;;30.25;28.50;;;;;-147.17;100.00;44940.09;5013644;28;51128;-55
2023/04/05 06:31:33;;;;;;;;;26.75;23.75;;;;;-147.17;100.00;45535.81;5014413;28;51175;-55
2023/04/05 06:33:59;;;;;;;;;28.00;24.00;;;;;-147.17;100.00;45999.84;5003291;28;50911;-55
2023/04/05 06:36:25;;;;;;;;;33.75;28.75;;;;;-147.17;100.00;46493.44;5013575;28;51934;-55
2023/04/05 06:38:52;;;;;;;;;29.50;29.50;;;;;-147.17;100.00;46637.00;5013821;28;50963;-54
2023/04/05 06:41:17;;;;;;;;;31.50;28.50;;;;;-147.17;100.00;46814.00;5014090;28;51167;-54
2023/04/05 06:43:42;;;;;;;;;33.00;32.00;;;;;-147.17;100.00;46798.28;5015044;28;51226;-56
2023/04/05 06:46:10;;;;;;;;;32.00;30.75;;;;;-147.17;100.00;46898.59;5013026;28;51270;-55
2023/04/05 06:48:36;;;;;;;;;34.25;31.50;;;;;-147.17;100.00;46802.22;5008572;28;51197;-56
2023/04/05 06:51:02;;;;;;;;;29.50;28.25;;;;;-147.17;100.00;46880.88;5013437;28;51012;-54
2023/04/05 06:53:28;;;;;;;;;31.00;28.00;;;;;-147.17;100.00;47018.56;5011781;28;51479;-55
2023/04/05 06:55:55;;;;;;;;;31.25;29.75;;;;;-147.17;100.00;47032.31;5011168;28;51161;-56
2023/04/05 06:58:21;;;;;;;;;32.25;30.00;;;;;-147.17;100.00;46914.31;4994889;28;51088;-53
2023/04/05 07:00:46;;;;;;;;;33.25;30.75;;;;;-147.17;100.00;46841.53;5001878;28;51282;-55
2023/04/05 07:03:11;;;;;;;;;36.50;31.75;;;;;-147.17;100.00;46861.22;5004886;28;51102;-53
2023/04/05 07:05:37;;;;;;;;;32.50;30.75;;;;;-147.17;100.00;46810.06;5009153;28;51881;-55
2023/04/05 07:08:02;;;;;;;;;31.75;30.25;;;;;-147.17;100.00;46892.69;5012518;28;51207;-55
2023/04/05 07:10:28;;;;;;;;;28.50;25.50;;;;;-147.17;100.00;46924.16;5003509;28;50961;-54
2023/04/05 07:12:53;;;;;;;;;32.25;29.00;;;;;-147.17;100.00;46853.34;5011358;28;51374;-55
2023/04/05 07:15:18;;;;;;;;;30.75;29.50;;;;;-147.17;100.00;46804.19;5012965;28;52018;-55
2023/04/05 07:17:44;;;;;;;;;30.00;28.75;;;;;-147.17;100.00;46812.03;5011094;28;51110;-54
2023/04/05 07:20:10;;;;;;;;;27.25;25.50;;;;;-147.17;100.00;46808.09;5010739;28;51126;-54
2023/04/05 07:22:36;;;;;;;;;25.75;24.75;;;;;-147.17;100.00;46747.13;5011962;28;53596;-55
2023/04/05 07:25:01;;;;;;;;;27.50;26.00;;;;;-147.17;100.00;46640.94;5012700;28;51200;-56
2023/04/05 07:27:29;;;;;;;;;28.00;26.75;;;;;-147.17;100.00;46544.56;5011075;28;51140;-56
2023/04/05 07:29:54;;;;;;;;;27.00;25.25;;;;;-147.17;100.00;46363.63;5012448;28;51013;-55
2023/04/05 07:32:20;;;;;;;;;26.50;26.50;;;;;-147.17;100.00;46178.78;5010018;28;51249;-54
2023/04/05 07:34:46;;;;;;;;;33.25;26.75;;;;;-147.17;100.00;46041.13;5011710;28;51031;-54
2023/04/05 07:37:12;;;;;;;;;34.50;32.25;;;;;-147.17;100.00;45929.06;5012495;28;51078;-54
2023/04/05 07:39:38;;;;;;;;;31.25;30.25;;;;;-147.17;100.00;45815.00;5012304;28;51095;-55
2023/04/05 07:42:04;;;;;;;;;27.25;27.25;;;;;-147.17;100.00;45583.00;5009891;28;51385;-53
2023/04/05 07:44:29;;;;;;;;;27.50;26.50;;;;;-147.17;100.00;45366.72;5009923;28;51673;-56
2023/04/05 07:46:55;;;;;;;;;25.75;23.25;;;;;-147.17;100.00;45221.22;5008332;28;51306;-55
2023/04/05 07:49:25;;;;;;;;;28.50;25.75;;;;;-147.17;100.00;45040.38;5010651;28;51209;-55
2023/04/05 07:51:54;;;;;;;;;33.00;29.50;;;;;-147.17;100.00;45024.63;5009786;28;52139;-55
2023/04/05 07:54:19;;;;;;;;;29.75;29.00;;;;;-147.17;100.00;45120.97;5009506;28;51777;-55
2023/04/05 07:56:45;;;;;;;;;31.50;28.50;;;;;-147.17;100.00;44967.63;5007940;28;51060;-55
2023/04/05 07:59:12;;;;;;;;;30.50;29.00;;;;;-147.17;100.00;44776.94;5011905;28;51082;-54
2023/04/05 08:01:39;;;;;;;;;33.75;32.00;;;;;-147.17;100.00;44651.13;5008622;28;50906;-56
2023/04/05 08:04:06;;;;;;;;;32.00;29.25;;;;;-147.17;100.00;44448.66;5011812;28;51712;-56
2023/04/05 08:06:32;;;;;;;;;31.00;29.25;;;;;-147.17;100.00;44332.69;5011267;28;51044;-58
2023/04/05 08:08:57;;;;;;;;;29.75;26.50;;;;;-147.17;100.00;44132.22;5012034;28;50934;-56
2023/04/05 08:11:23;;;;;;;;;26.75;25.25;;;;;-147.17;100.00;43888.50;5012539;28;50850;-57
2023/04/05 08:13:49;;;;;;;;;29.25;27.50;;;;;-147.17;100.00;43833.47;5004756;28;51185;-56
2023/04/05 08:16:14;;;;;;;;;30.00;28.75;;;;;-147.17;100.00;43664.47;5001549;28;51134;-56
2023/04/05 08:18:40;;;;;;;;;28.75;27.25;;;;;-147.17;100.00;43491.53;5010977;28;51132;-59
2023/04/05 08:21:05;;;;;;;;;29.50;28.25;;;;;-147.17;100.00;43418.81;5011687;28;51093;-56
2023/04/05 08:23:31;;;;;;;;;28.50;28.50;;;;;-147.17;100.00;43302.88;5010630;28;51039;-57
2023/04/05 08:25:56;;;;;;;;;25.75;25.00;;;;;-147.17;100.00;43483.66;5012036;28;51147;-58
2023/04/05 08:28:22;;;;;;;;;31.00;28.50;;;;;-147.17;100.00;43485.63;5009556;28;51111;-56
2023/04/05 08:30:47;;;;;;;;;33.00;29.75;;;;;-147.17;100.00;43684.13;5012324;28;51060;-57
2023/04/05 08:33:13;;;;;;;;;34.25;31.75;;;;;-147.17;100.00;43642.84;5012134;28;51756;-57
2023/04/05 08:35:39;;;;;;;;;29.75;29.25;;;;;-147.17;100.00;43469.91;5012273;28;51051;-57
2023/04/05 08:38:07;;;;;;;;;29.00;27.00;;;;;-147.17;100.00;43295.03;5012202;28;50969;-56
2023/04/05 08:40:42;;;;;;;;;30.00;27.25;;;;;-147.17;100.00;43126.03;5012025;28;51333;-56
2023/04/05 08:43:37;;;;;;;;;29.25;27.25;;;;;-147.17;100.00;42996.34;5011745;28;51308;-57
2023/04/05 08:46:06;;;;;;;;;25.50;24.00;;;;;-147.17;100.00;42764.50;5012178;28;50957;-57
2023/04/05 08:48:35;;;;;;;;;33.00;30.00;;;;;-147.17;100.00;42505.16;5010305;28;51185;-57
2023/04/05 08:51:01;;;;;;;;;30.00;28.75;;;;;-147.17;100.00;42351.91;5011805;28;50888;-58
2023/04/05 08:53:26;;;;;;;;;27.25;26.25;;;;;-147.17;100.00;42245.84;5011404;28;51040;-57
2023/04/05 08:55:55;;;;;;;;;26.25;26.25;;;;;-147.17;100.00;42216.38;5011323;28;50976;-57
2023/04/05 08:58:22;;;;;;;;;28.25;27.00;;;;;-147.17;100.00;42139.75;5011124;28;51109;-57
2023/04/05 09:00:50;;;;;;;;;29.25;27.25;;;;;-147.17;100.00;41923.66;5009208;28;51180;-57
2023/04/05 09:03:19;;;;;;;;;32.75;28.75;;;;;-147.17;100.00;42014.03;5010348;28;52715;-57
2023/04/05 09:05:47;;;;;;;;;28.50;27.25;;;;;-147.17;100.00;41976.69;5011559;28;51092;-58
2023/04/05 09:08:13;;;;;;;;;23.25;21.75;;;;;-147.17;100.00;41986.53;5011390;28;51059;-57
2023/04/05 09:10:39;;;;;;;;;28.00;27.25;;;;;-147.17;100.00;41909.91;5011364;28;51424;-57
2023/04/05 09:13:10;;;;;;;;;22.50;22.00;;;;;-147.17;100.00;41780.25;5011137;28;51683;-57
2023/04/05 09:15:37;;;;;;;;;50.75;43.50;;;;;-147.17;100.00;41589.75;5002276;28;51203;-58
2023/04/05 09:18:03;;;;;;;;;25.00;24.25;;;;;-147.17;100.00;41579.91;5011799;28;51094;-58
2023/04/05 09:20:29;;;;;;;;;25.50;24.50;;;;;-147.17;100.00;41581.88;5011754;28;51006;-57
2023/04/05 09:22:56;;;;;;;;;28.50;26.00;;;;;-147.17;100.00;41511.16;5011362;28;52628;-58
2023/04/05 09:25:30;;;;;;;;;25.00;24.50;;;;;-147.17;100.00;41271.56;5011687;28;51004;-57
2023/04/05 09:27:56;;;;;;;;;26.25;25.50;;;;;-147.17;100.00;41348.16;5011103;28;50932;-58
2023/04/05 09:30:22;;;;;;;;;24.50;23.50;;;;;-147.17;100.00;41416.88;5004651;28;51129;-58
2023/04/05 09:32:53;;;;;;;;;31.75;28.50;;;;;-147.17;100.00;41322.63;5010673;28;54174;-56
2023/04/05 09:35:27;;;;;;;;;30.25;29.25;;;;;-147.17;100.00;41216.56;5014447;28;50962;-57
2023/04/05 09:37:55;;;;;;;;;27.25;26.25;;;;;-147.17;100.00;41183.16;5014394;28;51106;-57
2023/04/05 09:40:22;;;;;;;;;25.25;25.00;;;;;-147.17;100.00;41067.28;5014606;28;51477;-57
2023/04/05 09:42:48;;;;;;;;;30.50;28.75;;;;;-147.17;100.00;40925.91;5013738;28;51233;-57
2023/04/05 09:45:15;;;;;;;;;30.50;29.25;;;;;-147.17;100.00;40770.75;5011989;28;51212;-58
2023/04/05 09:47:41;;;;;;;;;32.00;29.75;;;;;-147.17;100.00;40407.47;5005986;28;51041;-56
2023/04/05 09:50:15;;;;;;;;;29.00;27.00;;;;;-147.17;100.00;40038.34;5012410;28;51117;-63
2023/04/05 09:52:41;;;;;;;;;29.75;28.75;;;;;-147.17;100.00;39486.66;5014173;28;51101;-58
2023/04/05 09:55:07;;;;;;;;;29.50;28.25;;;;;-147.17;100.00;39200.03;5016556;28;51193;-58
2023/04/05 09:57:36;;;;;;;;;29.50;28.75;;;;;-147.17;100.00;39164.72;5011999;28;51730;-58
2023/04/05 10:00:04;;;;;;;;;26.00;26.00;;;;;-147.17;100.00;39139.19;5013767;28;51012;-58
2023/04/05 10:02:38;;;;;;;;;23.25;22.75;;;;;-147.17;100.00;38901.69;5002275;28;52888;-57
2023/04/05 10:05:12;;;;;;;;;26.75;26.50;;;;;-147.17;100.00;38558.19;5012803;28;51415;-58
2023/04/05 10:07:39;;;;;;;;;27.00;26.25;;;;;-147.17;100.00;38416.88;5013660;28;51158;-58
2023/04/05 10:10:05;;;;;;;;;25.25;24.75;;;;;-147.17;100.00;38346.22;5012968;28;51304;-58
2023/04/05 10:12:31;;;;;;;;;23.25;22.25;;;;;-147.17;100.00;37824.22;5013106;28;51030;-58
2023/04/05 10:14:58;;;;;;;;;22.00;21.50;;;;;-147.17;100.00;37547.56;5011175;28;51094;-57
2023/04/05 10:17:30;;;;;;;;;30.75;28.75;;;;;-147.17;100.00;37249.31;5013336;28;51122;-57
2023/04/05 10:20:18;;;;;;;;;32.00;29.00;;;;;-147.17;100.00;36917.75;5013741;28;51276;-58
2023/04/05 10:23:11;;;;;;;;;28.50;27.25;;;;;-147.17;100.00;36346.88;5003547;28;52182;-57
2023/04/05 10:25:54;;;;;;;;;29.00;27.50;;;;;-147.17;100.00;35991.84;5005576;28;50973;-57
2023/04/05 10:28:30;;;;;;;;;29.50;27.75;;;;;-147.17;100.00;36038.94;5003232;28;51246;-58
2023/04/05 10:31:37;;;;;;;;;30.75;28.25;;;;;-147.17;100.00;36058.53;5005189;28;51133;-58
2023/04/05 10:34:08;;;;;;;;;25.00;24.00;;;;;-147.17;100.00;36580.31;5002363;28;51883;-58
2023/04/05 10:37:00;;;;;;;;;27.75;26.25;;;;;-147.17;100.00;36474.38;5004378;28;51227;-58
2023/04/05 10:39:28;;;;;;;;;28.75;28.00;;;;;-147.17;100.00;36274.31;5007455;28;51056;-57
2023/04/05 10:42:17;;;;;;;;;26.25;24.75;;;;;-147.17;100.00;36231.16;5008523;28;51284;-58
2023/04/05 10:44:50;;;;;;;;;28.00;27.25;;;;;-147.17;100.00;35889.88;5008868;28;53095;-58
2023/04/05 10:47:18;;;;;;;;;30.00;28.25;;;;;-147.17;100.00;35527.03;5004973;28;51061;-57
2023/04/05 10:49:48;;;;;;;;;31.75;29.75;;;;;-147.17;100.00;34764.22;5011386;28;51363;-57
2023/04/05 10:52:16;;;;;;;;;34.00;31.00;;;;;-147.17;100.00;33964.31;5012683;28;51048;-58
2023/04/05 10:54:42;;;;;;;;;33.00;30.75;;;;;-147.17;100.00;33270.38;5012638;28;52181;-58
2023/04/05 10:57:08;;;;;;;;;29.50;27.75;;;;;-147.17;100.00;32703.97;5000634;28;51166;-59